createdAt,value
2023-04-27T00:02:21.054Z,97425.42
2023-04-27T00:04:49.490Z,97428.71
2023-04-27T00:07:17.891Z,97426.48
2023-04-27T00:09:45.763Z,97425.80
2023-04-27T00:12:13.757Z,97425.45
2023-04-27T00:14:41.682Z,97424.94
2023-04-27T00:17:09.770Z,97432.39
2023-04-27T00:19:37.779Z,97427.91
2023-04-27T00:22:06.475Z,97425.66
2023-04-27T00:24:34.755Z,97422.89
2023-04-27T00:27:03.481Z,97422.34
2023-04-27T00:29:31.463Z,97423.02
2023-04-27T00:31:59.631Z,97420.40
2023-04-27T00:34:27.525Z,97420.89
2023-04-27T00:36:55.520Z,97421.55
2023-04-27T00:39:23.423Z,97420.48
2023-04-27T00:41:51.701Z,97421.48
2023-04-27T00:44:27.390Z,97421.47
2023-04-27T00:46:56.277Z,97420.41
2023-04-27T00:49:26.911Z,97420.90
2023-04-27T00:51:56.606Z,97420.04
2023-04-27T00:54:25.227Z,97419.69
2023-04-27T00:56:53.342Z,97418.33
2023-04-27T00:59:22.048Z,97420.73
2023-04-27T01:01:50.419Z,97424.21
2023-04-27T01:04:20.464Z,97427.15
2023-04-27T01:06:48.531Z,97426.66
2023-04-27T01:09:19.801Z,97429.95
2023-04-27T01:11:51.060Z,97430.13
2023-04-27T01:14:19.038Z,97431.50
2023-04-27T01:16:47.699Z,97432.89
2023-04-27T01:19:16.044Z,97431.15
2023-04-27T01:21:44.285Z,97430.44
2023-04-27T01:24:12.289Z,97432.50
2023-04-27T01:26:40.352Z,97430.92
2023-04-27T01:29:08.252Z,97434.20
2023-04-27T01:31:36.445Z,97435.05
2023-04-27T01:34:04.379Z,97436.06
2023-04-27T01:36:32.588Z,97433.10
2023-04-27T01:39:00.606Z,97437.60
2023-04-27T01:41:28.631Z,97444.32
2023-04-27T01:43:56.584Z,97443.98
2023-04-27T01:46:24.607Z,97445.56
2023-04-27T01:48:52.700Z,97447.30
2023-04-27T01:51:20.666Z,97445.77
2023-04-27T01:53:48.887Z,97444.41
2023-04-27T01:56:17.516Z,97445.13
2023-04-27T01:58:46.377Z,97447.55
2023-04-27T02:01:14.996Z,97449.63
2023-04-27T02:03:43.212Z,97452.71
2023-04-27T02:06:13.259Z,97454.25
2023-04-27T02:08:41.512Z,97452.16
2023-04-27T02:11:09.855Z,97450.92
2023-04-27T02:13:38.067Z,97452.45
2023-04-27T02:16:06.980Z,97453.81
2023-04-27T02:18:36.340Z,97459.34
2023-04-27T02:21:10.154Z,97463.62
2023-04-27T02:23:38.155Z,97464.13
2023-04-27T02:26:06.169Z,97468.09
2023-04-27T02:28:34.239Z,97467.59
2023-04-27T02:31:03.093Z,97468.45
2023-04-27T02:33:31.553Z,97472.27
2023-04-27T02:35:59.461Z,97472.27
2023-04-27T02:38:30.594Z,97470.72
2023-04-27T02:40:58.662Z,97475.72
2023-04-27T02:43:27.392Z,97478.30
2023-04-27T02:45:55.656Z,97477.94
2023-04-27T02:48:23.559Z,97484.81
2023-04-27T02:50:51.986Z,97485.98
2023-04-27T02:53:20.267Z,97486.81
2023-04-27T02:55:50.184Z,97489.55
2023-04-27T02:58:18.391Z,97491.25
2023-04-27T03:00:47.190Z,97490.71
2023-04-27T03:03:16.828Z,97487.77
2023-04-27T03:05:45.079Z,97492.60
2023-04-27T03:08:13.090Z,97495.20
2023-04-27T03:10:41.141Z,97496.42
2023-04-27T03:13:11.034Z,97497.80
2023-04-27T03:15:39.052Z,97499.20
2023-04-27T03:18:07.157Z,97499.75
2023-04-27T03:20:35.209Z,97503.90
2023-04-27T03:23:03.298Z,97502.88
2023-04-27T03:25:31.446Z,97506.67
2023-04-27T03:27:59.538Z,97512.39
2023-04-27T03:30:27.692Z,97515.66
2023-04-27T03:32:56.591Z,97518.27
2023-04-27T03:35:25.259Z,97518.11
2023-04-27T03:37:53.193Z,97521.42
2023-04-27T03:40:21.978Z,97526.45
2023-04-27T03:42:49.901Z,97528.05
2023-04-27T03:45:19.341Z,97529.48
2023-04-27T03:47:47.420Z,97529.90
2023-04-27T03:50:16.601Z,97533.98
2023-04-27T03:52:44.645Z,97536.48
2023-04-27T03:55:12.689Z,97538.66
2023-04-27T03:57:41.727Z,97536.86
2023-04-27T04:00:12.360Z,97540.57
2023-04-27T04:02:43.293Z,97540.81
2023-04-27T04:05:12.706Z,97542.23
2023-04-27T04:07:44.069Z,97547.82
2023-04-27T04:10:12.889Z,97556.16
2023-04-27T04:12:40.981Z,97553.08
2023-04-27T04:15:09.560Z,97557.25
2023-04-27T04:17:39.523Z,97557.09
2023-04-27T04:20:10.857Z,97556.92
2023-04-27T04:22:39.548Z,97558.67
2023-04-27T04:25:08.980Z,97554.69
2023-04-27T04:27:37.799Z,97556.42
2023-04-27T04:30:07.215Z,97556.41
2023-04-27T04:32:38.293Z,97560.57
2023-04-27T04:35:07.809Z,97563.50
2023-04-27T04:37:36.625Z,97562.45
2023-04-27T04:40:09.315Z,97568.85
2023-04-27T04:42:38.286Z,97570.20
2023-04-27T04:45:07.637Z,97571.40
2023-04-27T04:47:36.826Z,97572.27
2023-04-27T04:50:05.509Z,97574.31
2023-04-27T04:52:33.587Z,97576.16
2023-04-27T04:55:02.002Z,97572.84
2023-04-27T04:57:31.577Z,97575.06
2023-04-27T04:59:59.726Z,97578.52
2023-04-27T05:02:28.666Z,97575.55
2023-04-27T05:04:57.879Z,97574.84
2023-04-27T05:07:27.122Z,97577.98
2023-04-27T05:09:55.874Z,97580.41
2023-04-27T05:12:24.270Z,97582.98
2023-04-27T05:14:53.122Z,97587.14
2023-04-27T05:17:21.386Z,97586.44
2023-04-27T05:19:49.750Z,97588.84
2023-04-27T05:22:18.254Z,97588.67
2023-04-27T05:24:47.133Z,97588.30
2023-04-27T05:27:15.787Z,97588.31
2023-04-27T05:29:44.431Z,97586.92
2023-04-27T05:32:12.857Z,97584.63
2023-04-27T05:34:41.254Z,97585.92
2023-04-27T05:37:09.446Z,97586.39
2023-04-27T05:39:37.424Z,97587.33
2023-04-27T05:42:05.903Z,97583.66
2023-04-27T05:44:34.785Z,97589.21
2023-04-27T05:47:02.940Z,97588.09
2023-04-27T05:49:31.737Z,97585.79
2023-04-27T05:52:00.068Z,97591.56
2023-04-27T05:54:28.596Z,97594.02
2023-04-27T05:56:56.702Z,97592.14
2023-04-27T05:59:25.224Z,97582.39
2023-04-27T06:01:53.914Z,97588.89
2023-04-27T06:04:22.706Z,97593.55
2023-04-27T06:06:51.010Z,97588.96
2023-04-27T06:09:19.753Z,97595.02
2023-04-27T06:11:47.874Z,97594.52
2023-04-27T06:14:16.603Z,97593.20
2023-04-27T06:16:44.678Z,97598.02
2023-04-27T06:19:12.945Z,97604.63
2023-04-27T06:21:41.404Z,97599.91
2023-04-27T06:24:09.703Z,97600.72
2023-04-27T06:26:38.157Z,97605.80
2023-04-27T06:29:08.890Z,97604.84
2023-04-27T06:31:37.546Z,97607.23
2023-04-27T06:34:05.651Z,97606.08
2023-04-27T06:36:34.019Z,97602.07
2023-04-27T06:39:02.589Z,97594.98
2023-04-27T06:41:30.889Z,97598.17
2023-04-27T06:43:59.587Z,97597.55
2023-04-27T06:46:28.125Z,97604.73
2023-04-27T06:48:57.061Z,97602.89
2023-04-27T06:51:25.345Z,97598.64
2023-04-27T06:53:56.703Z,97603.31
2023-04-27T06:56:25.029Z,97614.70
2023-04-27T06:58:53.464Z,97620.60
2023-04-27T07:01:21.862Z,97617.65
2023-04-27T07:03:50.994Z,97618.71
2023-04-27T07:06:19.788Z,97614.69
2023-04-27T07:08:48.011Z,97618.30
2023-04-27T07:11:16.605Z,97624.41
2023-04-27T07:13:44.879Z,97636.95
2023-04-27T07:16:14.009Z,97639.16
2023-04-27T07:18:43.669Z,97639.01
2023-04-27T07:21:12.070Z,97635.08
2023-04-27T07:23:44.072Z,97634.30
2023-04-27T07:26:13.165Z,97631.66
2023-04-27T07:28:41.352Z,97637.63
2023-04-27T07:31:11.346Z,97622.43
2023-04-27T07:33:40.204Z,97624.27
2023-04-27T07:36:09.110Z,97624.93
2023-04-27T07:38:38.690Z,97623.01
2023-04-27T07:41:07.489Z,97621.75
2023-04-27T07:43:35.948Z,97620.58
2023-04-27T07:46:04.961Z,97621.52
2023-04-27T07:48:34.107Z,97613.42
2023-04-27T07:51:02.535Z,97623.63
2023-04-27T07:53:31.400Z,97631.57
2023-04-27T07:55:59.966Z,97634.09
2023-04-27T07:58:28.403Z,97623.79
2023-04-27T08:00:57.313Z,97629.39
2023-04-27T08:03:26.476Z,97624.65
2023-04-27T08:05:56.612Z,97627.27
2023-04-27T08:08:26.004Z,97624.11
2023-04-27T08:10:54.797Z,97628.17
2023-04-27T08:13:25.527Z,97633.97
2023-04-27T08:15:58.586Z,97639.58
2023-04-27T08:18:27.386Z,97652.68
2023-04-27T08:20:56.079Z,97648.29
2023-04-27T08:23:29.301Z,97640.07
2023-04-27T08:25:57.905Z,97644.02
2023-04-27T08:28:26.444Z,97645.00
2023-04-27T08:30:55.309Z,97641.23
2023-04-27T08:33:23.682Z,97649.41
2023-04-27T08:35:54.966Z,97665.33
2023-04-27T08:38:25.524Z,97657.07
2023-04-27T08:40:54.629Z,97652.17
2023-04-27T08:43:23.334Z,97665.53
2023-04-27T08:45:53.336Z,97654.73
2023-04-27T08:48:23.577Z,97653.23
2023-04-27T08:50:54.224Z,97663.44
2023-04-27T08:53:25.621Z,97667.41
2023-04-27T08:55:57.250Z,97667.23
2023-04-27T08:58:37.559Z,97682.84
2023-04-27T09:01:08.207Z,97679.92
2023-04-27T09:03:38.539Z,97674.55
2023-04-27T09:06:08.203Z,97672.11
2023-04-27T09:08:42.863Z,97672.42
2023-04-27T09:11:11.666Z,97665.77
2023-04-27T09:13:42.379Z,97662.09
2023-04-27T09:16:14.215Z,97666.67
2023-04-27T09:18:43.972Z,97671.26
2023-04-27T09:21:23.521Z,97670.91
2023-04-27T09:23:52.483Z,97675.88
2023-04-27T09:26:24.187Z,97674.89
2023-04-27T09:28:57.133Z,97678.26
2023-04-27T09:31:36.119Z,97677.45
2023-04-27T09:34:04.517Z,97671.94
2023-04-27T09:36:32.900Z,97666.37
2023-04-27T09:39:06.952Z,97659.35
2023-04-27T09:41:36.257Z,97663.10
2023-04-27T09:44:05.144Z,97667.20
2023-04-27T09:46:34.466Z,97668.04
2023-04-27T09:49:05.705Z,97666.69
2023-04-27T09:51:34.813Z,97659.60
2023-04-27T09:54:05.979Z,97666.86
2023-04-27T09:57:09.541Z,97666.11
2023-04-27T10:00:07.814Z,97668.21
2023-04-27T10:03:03.017Z,97663.55
2023-04-27T10:06:00.218Z,97662.54
2023-04-27T10:08:30.005Z,97659.74
2023-04-27T10:10:58.269Z,97647.59
2023-04-27T10:13:27.515Z,97658.95
2023-04-27T10:15:55.821Z,97655.75
2023-04-27T10:18:31.419Z,97651.19
2023-04-27T10:21:12.644Z,97646.70
2023-04-27T10:23:48.898Z,97644.42
2023-04-27T10:26:24.739Z,97654.54
2023-04-27T10:29:07.670Z,97649.23
2023-04-27T10:31:43.539Z,97660.45
2023-04-27T10:34:19.143Z,97652.64
2023-04-27T10:36:49.641Z,97651.98
2023-04-27T10:39:29.837Z,97653.50
2023-04-27T10:42:05.352Z,97649.95
2023-04-27T10:44:36.063Z,97644.61
2023-04-27T10:47:22.209Z,97651.36
2023-04-27T10:49:57.110Z,97655.74
2023-04-27T10:52:26.847Z,97651.77
2023-04-27T10:54:55.281Z,97655.88
2023-04-27T10:57:23.723Z,97639.80
2023-04-27T10:59:54.039Z,97644.48
2023-04-27T11:02:27.707Z,97650.02
2023-04-27T11:04:57.052Z,97652.09
2023-04-27T11:07:27.936Z,97657.52
2023-04-27T11:09:57.308Z,97659.13
2023-04-27T11:12:25.932Z,97662.33
2023-04-27T11:14:58.873Z,97651.70
2023-04-27T11:17:31.212Z,97662.27
2023-04-27T11:19:59.517Z,97660.90
2023-04-27T11:22:28.708Z,97663.95
2023-04-27T11:24:57.038Z,97665.89
2023-04-27T11:27:37.325Z,97677.05
2023-04-27T11:30:07.791Z,97674.48
2023-04-27T11:32:36.556Z,97670.30
2023-04-27T11:35:05.414Z,97672.69
2023-04-27T11:37:33.781Z,97676.43
2023-04-27T11:40:02.213Z,97679.27
2023-04-27T11:42:31.643Z,97675.35
2023-04-27T11:45:02.821Z,97679.06
2023-04-27T11:47:33.811Z,97675.20
2023-04-27T11:50:05.947Z,97666.93
2023-04-27T11:52:40.162Z,97678.58
2023-04-27T11:55:11.047Z,97673.52
2023-04-27T11:57:39.399Z,97680.11
2023-04-27T12:00:11.754Z,97679.93
2023-04-27T12:02:44.841Z,97669.20
2023-04-27T12:05:14.914Z,97672.90
2023-04-27T12:07:44.388Z,97667.50
2023-04-27T12:10:12.766Z,97676.56
2023-04-27T12:12:41.336Z,97684.77
2023-04-27T12:15:10.554Z,97679.38
2023-04-27T12:17:40.012Z,97683.36
2023-04-27T12:20:10.368Z,97695.08
2023-04-27T12:22:42.039Z,97698.44
2023-04-27T12:25:10.810Z,97704.38
2023-04-27T12:27:40.094Z,97694.27
2023-04-27T12:30:08.927Z,97689.90
2023-04-27T12:32:37.500Z,97693.48
2023-04-27T12:35:07.208Z,97693.03
2023-04-27T12:37:36.561Z,97686.98
2023-04-27T12:40:07.040Z,97677.67
2023-04-27T12:42:36.078Z,97673.84
2023-04-27T12:45:05.013Z,97674.80
2023-04-27T12:50:07.653Z,97675.27
2023-04-27T12:52:36.022Z,97686.00
2023-04-27T12:55:06.352Z,97684.74
2023-04-27T12:57:35.122Z,97679.31
2023-04-27T13:00:05.748Z,97683.37
2023-04-27T13:02:35.208Z,97681.77
2023-04-27T13:05:04.884Z,97686.36
2023-04-27T13:07:33.644Z,97685.83
2023-04-27T13:10:03.638Z,97694.33
2023-04-27T13:12:32.913Z,97693.59
2023-04-27T13:15:01.498Z,97694.06
2023-04-27T13:17:30.865Z,97698.90
2023-04-27T13:19:59.041Z,97701.84
2023-04-27T13:22:28.557Z,97714.50
2023-04-27T13:24:56.871Z,97709.91
2023-04-27T13:27:28.552Z,97705.29
2023-04-27T13:29:56.891Z,97704.31
2023-04-27T13:32:25.448Z,97700.27
2023-04-27T13:34:53.869Z,97701.84
2023-04-27T13:37:22.310Z,97696.81
2023-04-27T13:39:50.747Z,97700.15
2023-04-27T13:42:19.013Z,97701.20
2023-04-27T13:44:47.271Z,97705.52
2023-04-27T13:47:15.681Z,97706.45
2023-04-27T13:49:44.145Z,97701.68
2023-04-27T13:52:13.158Z,97700.02
2023-04-27T13:54:42.107Z,97709.95
2023-04-27T13:57:11.062Z,97706.88
2023-04-27T13:59:39.283Z,97720.36
2023-04-27T14:02:08.542Z,97719.28
2023-04-27T14:04:36.846Z,97715.73
2023-04-27T14:07:05.611Z,97734.34
2023-04-27T14:09:34.282Z,97728.77
2023-04-27T14:12:03.099Z,97732.03
2023-04-27T14:14:31.499Z,97729.98
2023-04-27T14:16:59.912Z,97737.37
2023-04-27T14:19:28.365Z,97746.34
2023-04-27T14:21:56.728Z,97731.35
2023-04-27T14:24:24.951Z,97735.84
2023-04-27T14:26:53.288Z,97741.77
2023-04-27T14:29:21.473Z,97747.20
2023-04-27T14:31:50.311Z,97738.13
2023-04-27T14:34:20.175Z,97741.78
2023-04-27T14:36:50.310Z,97739.52
2023-04-27T14:39:19.212Z,97744.77
2023-04-27T14:41:47.324Z,97754.96
2023-04-27T14:44:15.617Z,97762.33
2023-04-27T14:46:43.863Z,97754.14
2023-04-27T14:49:12.454Z,97756.08
2023-04-27T14:51:43.323Z,97758.14
2023-04-27T14:54:12.048Z,97767.52
2023-04-27T14:56:40.606Z,97771.56
2023-04-27T14:59:08.908Z,97769.67
2023-04-27T15:01:37.289Z,97766.03
2023-04-27T15:04:05.781Z,97766.59
2023-04-27T15:06:34.242Z,97769.48
2023-04-27T15:09:02.484Z,97773.38
2023-04-27T15:11:30.783Z,97768.41
2023-04-27T15:13:59.296Z,97769.80
2023-04-27T15:16:27.607Z,97777.58
2023-04-27T15:18:55.873Z,97765.67
2023-04-27T15:21:24.316Z,97771.16
2023-04-27T15:23:52.691Z,97778.48
2023-04-27T15:26:22.445Z,97780.66
2023-04-27T15:28:51.401Z,97777.34
2023-04-27T15:31:20.099Z,97770.35
2023-04-27T15:33:48.412Z,97772.05
2023-04-27T15:36:17.883Z,97770.30
2023-04-27T15:38:46.635Z,97771.13
2023-04-27T15:41:15.076Z,97767.52
2023-04-27T15:43:43.301Z,97773.48
2023-04-27T15:46:11.590Z,97772.69
2023-04-27T15:48:40.004Z,97774.10
2023-04-27T15:51:10.232Z,97774.79
2023-04-27T15:53:39.037Z,97778.16
2023-04-27T15:56:07.628Z,97781.13
2023-04-27T15:58:36.265Z,97780.43
2023-04-27T16:01:04.977Z,97784.67
2023-04-27T16:03:34.982Z,97784.92
2023-04-27T16:06:03.374Z,97781.94
2023-04-27T16:08:32.643Z,97784.80
2023-04-27T16:11:00.896Z,97784.73
2023-04-27T16:13:32.938Z,97786.21
2023-04-27T16:16:01.345Z,97788.98
2023-04-27T16:18:29.539Z,97798.80
2023-04-27T16:20:58.287Z,97802.05
2023-04-27T16:23:26.691Z,97801.05
2023-04-27T16:25:55.131Z,97801.80
2023-04-27T16:28:23.923Z,97808.80
2023-04-27T16:30:53.018Z,97810.19
2023-04-27T16:33:21.403Z,97816.16
2023-04-27T16:35:50.112Z,97811.72
2023-04-27T16:38:18.073Z,97810.44
2023-04-27T16:40:46.182Z,97811.60
2023-04-27T16:43:14.565Z,97818.23
2023-04-27T16:45:42.799Z,97824.40
2023-04-27T16:48:12.263Z,97826.68
2023-04-27T16:50:41.275Z,97821.67
2023-04-27T16:53:13.971Z,97824.25
2023-04-27T16:55:42.402Z,97831.58
2023-04-27T16:58:10.662Z,97831.79
2023-04-27T17:00:40.461Z,97833.36
2023-04-27T17:03:09.998Z,97838.39
2023-04-27T17:05:38.312Z,97840.66
2023-04-27T17:08:08.891Z,97838.39
2023-04-27T17:10:37.174Z,97838.75
2023-04-27T17:13:07.866Z,97837.36
2023-04-27T17:15:36.162Z,97840.50
2023-04-27T17:18:05.167Z,97837.58
2023-04-27T17:20:33.726Z,97839.66
2023-04-27T17:23:01.902Z,97842.61
2023-04-27T17:25:30.987Z,97844.88
2023-04-27T17:28:01.146Z,97846.48
2023-04-27T17:30:29.545Z,97850.15
2023-04-27T17:32:58.024Z,97852.27
2023-04-27T17:35:26.934Z,97858.20
2023-04-27T17:37:55.254Z,97864.15
2023-04-27T17:40:23.349Z,97866.45
2023-04-27T17:42:51.558Z,97872.89
2023-04-27T17:45:19.903Z,97873.60
2023-04-27T17:47:49.197Z,97876.39
2023-04-27T17:50:17.678Z,97878.15
2023-04-27T17:52:47.716Z,97884.08
2023-04-27T17:55:15.671Z,97888.98
2023-04-27T17:57:44.207Z,97892.10
2023-04-27T18:00:13.205Z,97895.08
2023-04-27T18:02:41.921Z,97896.84
2023-04-27T18:05:10.456Z,97904.50
2023-04-27T18:07:38.489Z,97902.79
2023-04-27T18:10:08.016Z,97907.16
2023-04-27T18:12:36.741Z,97913.63
2023-04-27T18:15:07.680Z,97914.85
2023-04-27T18:17:37.828Z,97918.34
2023-04-27T18:20:10.150Z,97925.13
2023-04-27T18:22:40.334Z,97928.96
2023-04-27T18:25:09.926Z,97931.23
2023-04-27T18:27:38.413Z,97930.17
2023-04-27T18:30:10.753Z,97934.89
2023-04-27T18:32:38.889Z,97935.92
2023-04-27T18:35:07.171Z,97934.52
2023-04-27T18:37:35.294Z,97933.50
2023-04-27T18:40:05.967Z,97940.96
2023-04-27T18:42:34.201Z,97943.58
2023-04-27T18:45:03.681Z,97942.19
2023-04-27T18:47:32.297Z,97943.91
2023-04-27T18:50:00.729Z,97946.00
2023-04-27T18:52:28.806Z,97944.42
2023-04-27T18:54:57.141Z,97946.34
2023-04-27T18:57:26.642Z,97948.61
2023-04-27T18:59:54.605Z,97948.61
2023-04-27T19:02:23.110Z,97953.81
2023-04-27T19:04:56.933Z,97960.59
2023-04-27T19:07:31.302Z,97961.48
2023-04-27T19:10:00.332Z,97963.58
2023-04-27T19:12:28.289Z,97962.88
2023-04-27T19:14:56.507Z,97968.62
2023-04-27T19:17:24.974Z,97969.67
2023-04-27T19:19:53.832Z,97969.68
2023-04-27T19:22:22.084Z,97969.17
2023-04-27T19:24:50.621Z,97969.17
2023-04-27T19:27:18.847Z,97973.70
2023-04-27T19:29:58.359Z,97976.48
2023-04-27T19:32:27.698Z,97975.61
2023-04-27T19:34:57.393Z,97977.00
2023-04-27T19:37:28.193Z,97975.27
2023-04-27T19:39:56.071Z,97971.79
2023-04-27T19:42:25.193Z,97975.64
2023-04-27T19:44:53.230Z,97975.64
2023-04-27T19:47:21.324Z,97973.55
2023-04-27T19:49:49.480Z,97972.70
2023-04-27T19:52:17.684Z,97973.74
2023-04-27T19:54:51.632Z,97976.52
2023-04-27T19:57:20.834Z,97981.92
2023-04-27T19:59:49.012Z,97984.19
2023-04-27T20:02:17.451Z,97982.80
2023-04-27T20:04:45.949Z,97983.16
2023-04-27T20:07:14.322Z,97986.46
2023-04-27T20:09:42.370Z,97988.38
2023-04-27T20:12:23.728Z,97989.94
2023-04-27T20:14:57.296Z,97988.91
2023-04-27T20:17:31.023Z,97992.39
2023-04-27T20:19:59.362Z,97991.00
2023-04-27T20:22:27.620Z,97991.00
2023-04-27T20:24:59.250Z,97988.57
2023-04-27T20:27:27.579Z,97987.88
2023-04-27T20:29:55.584Z,97988.57
2023-04-27T20:32:23.697Z,97985.79
2023-04-27T20:34:51.852Z,97985.97
2023-04-27T20:37:19.968Z,97984.94
2023-04-27T20:39:48.420Z,97984.75
2023-04-27T20:42:16.466Z,97983.70
2023-04-27T20:44:48.573Z,97979.72
2023-04-27T20:47:16.629Z,97984.42
2023-04-27T20:49:44.794Z,97984.07
2023-04-27T20:52:12.872Z,97984.06
2023-04-27T20:54:41.331Z,97983.19
2023-04-27T20:57:13.609Z,97986.50
2023-04-27T20:59:41.675Z,97986.84
2023-04-27T21:02:09.788Z,97989.63
2023-04-27T21:04:37.911Z,97985.46
2023-04-27T21:07:06.199Z,97984.77
2023-04-27T21:09:35.222Z,97987.21
2023-04-27T21:12:03.201Z,97986.70
2023-04-27T21:14:31.637Z,97987.05
2023-04-27T21:17:00.306Z,97984.42
2023-04-27T21:19:28.575Z,97985.30
2023-04-27T21:21:56.421Z,97984.96
2023-04-27T21:24:24.879Z,97984.27
2023-04-27T21:26:53.296Z,97986.52
2023-04-27T21:29:21.547Z,97986.17
2023-04-27T21:31:49.838Z,97987.05
2023-04-27T21:34:18.065Z,97986.70
2023-04-27T21:36:46.194Z,97987.92
2023-04-27T21:39:14.145Z,97988.61
2023-04-27T21:41:42.269Z,97986.88
2023-04-27T21:44:10.337Z,97986.70
2023-04-27T21:46:38.437Z,97984.79
2023-04-27T21:49:06.419Z,97985.84
2023-04-27T21:51:35.037Z,97986.20
2023-04-27T21:54:02.949Z,97984.61
2023-04-27T21:56:31.097Z,97985.15
2023-04-27T21:58:59.115Z,97988.27
2023-04-27T22:01:27.356Z,97989.66
2023-04-27T22:03:56.001Z,97988.95
2023-04-27T22:06:24.338Z,97989.30
2023-04-27T22:08:53.006Z,97986.69
2023-04-27T22:11:21.424Z,97990.36
2023-04-27T22:13:49.386Z,97988.61
2023-04-27T22:16:17.439Z,97988.09
2023-04-27T22:18:45.572Z,97989.30
2023-04-27T22:21:13.754Z,97990.00
2023-04-27T22:23:41.930Z,97993.64
2023-04-27T22:26:09.969Z,97995.55
2023-04-27T22:28:38.002Z,97993.46
2023-04-27T22:31:06.307Z,97991.91
2023-04-27T22:33:34.575Z,97991.90
2023-04-27T22:36:02.821Z,97988.60
2023-04-27T22:38:30.885Z,97988.27
2023-04-27T22:40:58.787Z,97987.23
2023-04-27T22:43:26.761Z,97985.99
2023-04-27T22:45:54.774Z,97985.47
2023-04-27T22:48:22.749Z,97985.83
2023-04-27T22:50:53.812Z,97984.42
2023-04-27T22:53:22.643Z,97985.48
2023-04-27T22:55:51.024Z,97988.08
2023-04-27T22:58:18.858Z,97991.02
2023-04-27T23:00:47.019Z,97992.41
2023-04-27T23:03:15.105Z,97993.27
2023-04-27T23:05:43.412Z,97989.60
2023-04-27T23:08:13.377Z,97988.72
2023-04-27T23:10:41.393Z,97990.97
2023-04-27T23:13:12.953Z,97991.50
2023-04-27T23:15:40.932Z,97991.14
2023-04-27T23:18:09.376Z,97988.54
2023-04-27T23:20:37.301Z,97987.48
2023-04-27T23:23:05.252Z,97988.70
2023-04-27T23:25:33.798Z,97985.04
2023-04-27T23:28:01.915Z,97981.92
2023-04-27T23:30:30.843Z,97983.82
2023-04-27T23:32:58.734Z,97984.15
2023-04-27T23:35:28.923Z,97984.82
2023-04-27T23:37:57.843Z,97984.80
2023-04-27T23:40:26.338Z,97988.08
2023-04-27T23:42:54.302Z,97985.12
2023-04-27T23:45:22.271Z,97980.92
2023-04-27T23:47:50.397Z,97984.19
2023-04-27T23:50:18.490Z,97988.15
2023-04-27T23:52:46.669Z,97985.86
2023-04-27T23:55:14.811Z,97990.33
2023-04-27T23:57:43.039Z,97996.17
